createdAt,value
2023-02-03T00:00:08.429Z,91707.91
2023-02-03T00:02:37.832Z,91713.03
2023-02-03T00:05:06.610Z,91700.25
2023-02-03T00:07:35.034Z,91749.88
2023-02-03T00:10:04.032Z,91760.34
2023-02-03T00:12:32.095Z,91758.16
2023-02-03T00:15:00.033Z,91740.03
2023-02-03T00:17:28.012Z,91718.56
2023-02-03T00:19:57.404Z,91713.63
2023-02-03T00:22:25.304Z,91693.91
2023-02-03T00:24:53.242Z,91673.81
2023-02-03T00:27:21.545Z,91665.91
2023-02-03T00:29:49.614Z,91639.34
2023-02-03T00:32:17.692Z,91603.72
2023-02-03T00:34:46.166Z,91595.81
2023-02-03T00:37:15.871Z,91604.88
2023-02-03T00:39:44.042Z,91602.53
2023-02-03T00:42:12.039Z,91586.78
2023-02-03T00:44:39.882Z,91563.53
2023-02-03T00:47:09.304Z,91548.16
2023-02-03T00:49:37.362Z,91522.19
2023-02-03T00:52:05.937Z,91510.97
2023-02-03T00:54:35.174Z,91502.91
2023-02-03T00:57:03.206Z,91494.66
2023-02-03T00:59:31.441Z,91480.06
2023-02-03T01:01:59.852Z,91463.16
2023-02-03T01:04:28.288Z,91462.56
2023-02-03T01:06:58.260Z,91449.78
2023-02-03T01:09:26.116Z,91447.41
2023-02-03T01:11:55.612Z,91450.16
2023-02-03T01:14:23.493Z,91443.88
2023-02-03T01:16:51.843Z,91433.66
2023-02-03T01:19:20.040Z,91416.34
2023-02-03T01:21:48.166Z,91435.22
2023-02-03T01:24:18.533Z,91464.72
2023-02-03T01:26:46.761Z,91463.16
2023-02-03T01:29:16.382Z,91467.09
2023-02-03T01:31:44.721Z,91481.28
2023-02-03T01:34:16.466Z,91464.72
2023-02-03T01:36:44.514Z,91451.72
2023-02-03T01:39:12.800Z,91443.47
2023-02-03T01:41:41.980Z,91426.97
2023-02-03T01:44:51.346Z,91419.50
2023-02-03T01:47:26.324Z,91443.47
2023-02-03T01:49:59.786Z,91462.34
2023-02-03T01:52:28.961Z,91464.72
2023-02-03T01:55:01.489Z,91464.72
2023-02-03T01:57:35.093Z,91459.81
2023-02-03T02:00:06.743Z,91435.81
2023-02-03T02:02:37.049Z,91409.25
2023-02-03T02:05:11.481Z,91400.63
2023-02-03T02:07:41.458Z,91390.78
2023-02-03T02:10:10.440Z,91378.56
2023-02-03T02:12:38.819Z,91409.66
2023-02-03T02:15:08.012Z,91410.44
2023-02-03T02:17:53.249Z,91398.06
2023-02-03T02:20:39.677Z,91386.06
2023-02-03T02:23:34.455Z,91364.41
2023-02-03T02:26:38.357Z,91355.38
2023-02-03T02:29:26.104Z,91348.69
2023-02-03T02:32:11.433Z,91333.78
2023-02-03T02:34:52.075Z,91332.38
2023-02-03T02:37:27.775Z,91337.28
2023-02-03T02:40:06.605Z,91340.63
2023-02-03T02:42:40.860Z,91349.06
2023-02-03T02:45:16.452Z,91329.03
2023-02-03T02:47:46.606Z,91324.13
2023-02-03T02:50:19.562Z,91302.75
2023-02-03T02:52:49.955Z,91294.09
2023-02-03T02:55:24.769Z,91288.97
2023-02-03T02:57:56.415Z,91287.41
2023-02-03T03:00:25.382Z,91279.16
2023-02-03T03:02:55.122Z,91283.44
2023-02-03T03:05:23.015Z,91275.00
2023-02-03T03:07:57.317Z,91261.66
2023-02-03T03:10:30.545Z,91293.69
2023-02-03T03:13:03.272Z,91303.91
2023-02-03T03:15:34.066Z,91295.28
2023-02-03T03:18:11.403Z,91296.44
2023-02-03T03:20:43.100Z,91287.41
2023-02-03T03:23:19.161Z,91285.06
2023-02-03T03:25:50.575Z,91269.91
2023-02-03T03:28:26.736Z,91265.78
2023-02-03T03:30:55.127Z,91263.41
2023-02-03T03:33:25.076Z,91268.13
2023-02-03T03:36:00.204Z,91288.97
2023-02-03T03:38:33.737Z,91281.31
2023-02-03T03:41:07.865Z,91293.69
2023-02-03T03:43:42.320Z,91298.00
2023-02-03T03:46:15.200Z,91291.34
2023-02-03T03:48:51.125Z,91279.16
2023-02-03T03:51:23.988Z,91265.78
2023-02-03T03:53:53.859Z,91270.88
2023-02-03T03:56:26.723Z,91266.56
2023-02-03T03:58:55.501Z,91273.44
2023-02-03T04:01:24.990Z,91284.84
2023-02-03T04:04:00.637Z,91307.66
2023-02-03T04:06:30.026Z,91322.56
2023-02-03T04:08:58.447Z,91312.56
2023-02-03T04:11:43.871Z,91302.75
2023-02-03T04:14:11.714Z,91288.59
2023-02-03T04:16:39.565Z,91285.44
2023-02-03T04:19:09.084Z,91279.75
2023-02-03T04:21:37.104Z,91280.53
2023-02-03T04:24:05.509Z,91289.56
2023-02-03T04:26:33.504Z,91283.88
2023-02-03T04:29:01.502Z,91297.22
2023-02-03T04:31:29.857Z,91309.41
2023-02-03T04:33:58.073Z,91323.13
2023-02-03T04:36:27.788Z,91330.22
2023-02-03T04:38:55.793Z,91333.34
2023-02-03T04:41:23.668Z,91320.00
2023-02-03T04:43:51.752Z,91320.00
2023-02-03T04:46:20.010Z,91318.22
2023-02-03T04:48:48.051Z,91319.22
2023-02-03T04:51:15.965Z,91329.81
2023-02-03T04:53:45.500Z,91328.84
2023-02-03T04:56:13.502Z,91332.38
2023-02-03T04:58:41.410Z,91319.03
2023-02-03T05:01:10.586Z,91316.88
2023-02-03T05:03:38.597Z,91317.44
2023-02-03T05:06:07.151Z,91316.66
2023-02-03T05:08:35.290Z,91309.22
2023-02-03T05:11:06.419Z,91315.91
2023-02-03T05:13:34.505Z,91338.28
2023-02-03T05:16:02.645Z,91347.91
2023-02-03T05:18:30.552Z,91352.63
2023-02-03T05:20:58.508Z,91361.84
2023-02-03T05:23:26.887Z,91359.91
2023-02-03T05:25:54.845Z,91387.25
2023-02-03T05:28:24.215Z,91394.53
2023-02-03T05:30:52.218Z,91419.09
2023-02-03T05:33:20.437Z,91425.00
2023-02-03T05:35:48.383Z,91435.81
2023-02-03T05:38:16.398Z,91448.00
2023-02-03T05:41:02.238Z,91458.03
2023-02-03T05:43:31.737Z,91447.03
2023-02-03T05:46:01.753Z,91449.59
2023-02-03T05:48:30.330Z,91468.50
2023-02-03T05:50:58.776Z,91469.44
2023-02-03T05:53:27.257Z,91458.03
2023-02-03T05:55:55.420Z,91458.22
2023-02-03T05:58:23.345Z,91445.66
2023-02-03T06:00:53.855Z,91423.44
2023-02-03T06:03:21.924Z,91423.44
2023-02-03T06:05:50.076Z,91418.69
2023-02-03T06:08:18.087Z,91404.34
2023-02-03T06:10:46.259Z,91423.22
2023-02-03T06:13:17.911Z,91453.91
2023-02-03T06:15:45.923Z,91489.53
2023-02-03T06:18:15.389Z,91527.31
2023-02-03T06:20:43.253Z,91545.03
2023-02-03T06:23:11.232Z,91566.47
2023-02-03T06:25:39.318Z,91597.81
2023-02-03T06:28:07.135Z,91642.50
2023-02-03T06:30:35.341Z,91680.50
2023-02-03T06:33:03.838Z,91703.41
2023-02-03T06:35:33.118Z,91746.34
2023-02-03T06:38:01.148Z,91791.06
2023-02-03T06:40:29.875Z,91812.19
2023-02-03T06:42:58.338Z,91824.41
2023-02-03T06:45:26.204Z,91848.47
2023-02-03T06:47:54.179Z,91854.19
2023-02-03T06:50:22.178Z,91858.31
2023-02-03T06:52:51.744Z,91851.63
2023-02-03T06:55:19.980Z,91855.94
2023-02-03T06:57:49.220Z,91856.13
2023-02-03T07:00:19.486Z,91859.91
2023-02-03T07:02:47.891Z,91854.19
2023-02-03T07:05:16.370Z,91838.59
2023-02-03T07:07:44.375Z,91810.63
2023-02-03T07:10:14.042Z,91804.13
2023-02-03T07:12:42.209Z,91788.34
2023-02-03T07:15:11.635Z,91805.88
2023-02-03T07:17:39.557Z,91810.63
2023-02-03T07:20:08.288Z,91813.75
2023-02-03T07:22:36.504Z,91816.13
2023-02-03T07:25:04.465Z,91844.50
2023-02-03T07:27:33.912Z,91859.28
2023-02-03T07:30:01.914Z,91873.91
2023-02-03T07:32:31.402Z,91898.97
2023-02-03T07:35:01.349Z,91916.31
2023-02-03T07:37:29.333Z,91935.06
2023-02-03T07:39:57.151Z,91974.94
2023-02-03T07:42:25.145Z,91989.72
2023-02-03T07:44:54.360Z,92017.00
2023-02-03T07:47:22.378Z,92049.78
2023-02-03T07:49:50.376Z,92091.25
2023-02-03T07:52:18.866Z,92131.16
2023-02-03T07:54:47.687Z,92169.91
2023-02-03T07:57:15.621Z,92202.31
2023-02-03T07:59:44.135Z,92250.16
2023-02-03T08:02:13.501Z,92321.38
2023-02-03T08:04:41.528Z,92372.44
2023-02-03T08:07:09.391Z,92414.00
2023-02-03T08:09:37.251Z,92435.38
2023-02-03T08:12:05.545Z,92463.06
2023-02-03T08:14:33.424Z,92490.38
2023-02-03T08:17:01.254Z,92491.00
2023-02-03T08:19:30.710Z,92491.97
2023-02-03T08:22:00.457Z,92477.91
2023-02-03T08:24:28.547Z,92474.56
2023-02-03T08:26:56.957Z,92473.75
2023-02-03T08:29:24.918Z,92482.06
2023-02-03T08:31:54.507Z,92473.75
2023-02-03T08:34:22.386Z,92465.44
2023-02-03T08:36:51.804Z,92473.75
2023-02-03T08:39:19.674Z,92481.72
2023-02-03T08:41:47.801Z,92502.69
2023-02-03T08:44:15.808Z,92531.63
2023-02-03T08:46:44.298Z,92554.00
2023-02-03T08:49:12.445Z,92584.72
2023-02-03T08:51:41.724Z,92618.00
2023-02-03T08:54:10.908Z,92644.22
2023-02-03T08:56:40.122Z,92680.25
2023-02-03T08:59:08.909Z,92712.41
2023-02-03T09:01:36.903Z,92765.59
2023-02-03T09:04:07.335Z,92813.34
2023-02-03T09:06:36.178Z,92870.38
2023-02-03T09:09:04.705Z,92931.56
2023-02-03T09:11:34.140Z,92985.78
2023-02-03T09:14:02.083Z,93041.59
2023-02-03T09:16:31.008Z,93157.13
2023-02-03T09:18:59.038Z,93265.38
2023-02-03T09:21:32.937Z,93369.97
2023-02-03T09:24:05.496Z,93507.81
2023-02-03T09:26:34.826Z,93628.25
2023-02-03T09:29:02.779Z,93713.13
2023-02-03T09:31:30.766Z,93836.09
2023-02-03T09:34:00.056Z,93907.41
2023-02-03T09:36:28.363Z,93983.34
2023-02-03T09:38:57.957Z,94128.22
2023-02-03T09:41:49.966Z,94264.59
2023-02-03T09:44:24.046Z,94400.63
2023-02-03T09:46:56.797Z,94356.78
2023-02-03T09:49:29.099Z,94468.63
2023-02-03T09:52:03.932Z,94521.25
2023-02-03T09:54:43.534Z,94647.59
2023-02-03T09:57:19.055Z,94740.00
2023-02-03T09:59:46.977Z,94816.56
2023-02-03T10:02:28.835Z,94901.47
2023-02-03T10:05:01.418Z,95042.25
2023-02-03T10:07:41.329Z,95044.84
2023-02-03T10:10:18.289Z,95119.63
2023-02-03T10:13:02.259Z,95111.50
2023-02-03T10:15:44.675Z,95222.72
2023-02-03T10:18:16.161Z,95268.25
2023-02-03T10:20:48.642Z,95311.38
2023-02-03T10:23:19.521Z,95687.56
2023-02-03T10:25:57.137Z,96459.94
2023-02-03T10:28:31.179Z,97118.44
2023-02-03T10:31:01.399Z,97698.25
2023-02-03T10:33:30.791Z,98413.56
2023-02-03T10:36:08.763Z,98937.63
2023-02-03T10:38:47.538Z,99005.09
2023-02-03T10:41:16.466Z,98867.88
2023-02-03T10:43:51.784Z,98832.63
2023-02-03T10:46:22.660Z,98899.13
2023-02-03T10:48:50.722Z,99054.47
2023-02-03T10:51:23.062Z,99452.50
2023-02-03T10:53:53.575Z,99429.97
2023-02-03T10:56:25.252Z,99909.50
2023-02-03T10:58:56.626Z,99792.47
2023-02-03T11:01:26.898Z,99639.00
2023-02-03T11:04:04.688Z,99588.72
2023-02-03T11:06:33.722Z,99850.50
2023-02-03T11:09:01.862Z,99870.66
2023-02-03T11:11:32.646Z,99749.41
2023-02-03T11:14:17.910Z,100189.72
2023-02-03T11:16:47.379Z,100179.34
2023-02-03T11:19:18.616Z,99957.66
2023-02-03T11:21:49.024Z,99743.38
2023-02-03T11:24:21.728Z,99714.78
2023-02-03T11:26:53.239Z,99532.84
2023-02-03T11:29:25.244Z,99754.84
2023-02-03T11:31:55.902Z,99546.00
2023-02-03T11:34:28.242Z,99582.13
2023-02-03T11:36:56.531Z,99672.38
2023-02-03T11:39:29.783Z,99799.94
2023-02-03T11:41:58.003Z,99592.72
2023-02-03T11:44:31.136Z,98830.91
2023-02-03T11:47:02.128Z,98451.72
2023-02-03T11:50:03.373Z,98452.56
2023-02-03T11:52:51.499Z,98228.06
2023-02-03T11:55:33.063Z,98045.31
2023-02-03T11:58:19.047Z,98139.91
2023-02-03T12:00:56.680Z,97702.25
2023-02-03T12:03:41.242Z,97528.34
2023-02-03T12:06:25.103Z,97423.03
2023-02-03T12:09:07.782Z,97238.53
2023-02-03T12:11:52.259Z,97166.63
2023-02-03T12:14:36.363Z,96947.38
2023-02-03T12:17:26.253Z,96912.53
2023-02-03T12:20:13.995Z,96718.94
2023-02-03T12:22:52.463Z,96696.94
2023-02-03T12:25:34.609Z,96715.66
2023-02-03T12:28:16.016Z,96786.09
2023-02-03T12:30:52.752Z,96884.13
2023-02-03T12:33:28.548Z,96850.94
2023-02-03T12:36:07.112Z,96829.75
2023-02-03T12:38:41.430Z,96928.50
2023-02-03T12:41:15.652Z,96870.63
2023-02-03T12:43:49.316Z,96863.75
2023-02-03T12:46:20.682Z,96960.72
2023-02-03T12:48:54.558Z,96917.63
2023-02-03T12:51:30.663Z,96856.88
2023-02-03T12:54:04.653Z,96765.56
2023-02-03T12:56:40.221Z,96758.84
2023-02-03T12:59:16.107Z,96704.34
2023-02-03T13:01:50.790Z,96698.28
2023-02-03T13:04:30.268Z,96730.75
2023-02-03T13:07:07.946Z,96714.66
2023-02-03T13:09:42.653Z,96667.88
2023-02-03T13:12:15.232Z,96699.94
2023-02-03T13:14:47.018Z,96643.94
2023-02-03T13:17:20.999Z,96590.47
2023-02-03T13:19:53.349Z,96523.25
2023-02-03T13:22:24.002Z,96535.06
2023-02-03T13:24:57.587Z,96524.75
2023-02-03T13:27:40.723Z,96481.47
2023-02-03T13:30:28.021Z,96428.53
2023-02-03T13:33:42.202Z,96380.22
2023-02-03T13:36:33.308Z,96349.75
2023-02-03T13:39:19.111Z,96320.59
2023-02-03T13:41:50.176Z,96274.78
2023-02-03T13:44:21.385Z,96267.38
2023-02-03T13:46:50.891Z,96220.44
2023-02-03T13:49:25.324Z,96255.75
2023-02-03T13:51:55.554Z,96190.97
2023-02-03T13:54:29.076Z,96101.66
2023-02-03T13:57:02.346Z,96033.84
2023-02-03T13:59:41.030Z,96000.81
2023-02-03T14:02:32.161Z,95950.97
2023-02-03T14:05:02.139Z,95901.66
2023-02-03T14:07:34.692Z,95856.88
2023-02-03T14:10:24.381Z,95822.28
2023-02-03T14:13:00.263Z,95785.75
2023-02-03T14:15:34.132Z,95754.38
2023-02-03T14:18:32.673Z,95728.28
2023-02-03T14:21:22.530Z,95672.13
2023-02-03T14:23:57.751Z,95657.16
2023-02-03T14:26:34.704Z,95599.47
2023-02-03T14:29:04.067Z,95556.28
2023-02-03T14:31:32.858Z,95522.84
2023-02-03T14:34:09.490Z,95459.16
2023-02-03T14:36:41.578Z,95405.09
2023-02-03T14:39:48.819Z,95363.91
2023-02-03T14:42:33.653Z,95319.13
2023-02-03T14:45:17.001Z,95250.97
2023-02-03T14:48:00.169Z,95222.31
2023-02-03T14:50:40.880Z,95149.50
2023-02-03T14:53:32.328Z,95124.44
2023-02-03T14:56:14.873Z,95079.13
2023-02-03T14:58:49.450Z,95053.28
2023-02-03T15:01:29.188Z,95014.63
2023-02-03T15:04:23.376Z,94989.44
2023-02-03T15:06:53.638Z,94958.44
2023-02-03T15:09:31.094Z,94896.72
2023-02-03T15:11:59.077Z,94863.13
2023-02-03T15:14:31.351Z,94823.41
2023-02-03T15:17:01.766Z,94806.69
2023-02-03T15:19:34.416Z,94794.19
2023-02-03T15:22:02.971Z,94822.75
2023-02-03T15:24:38.133Z,94826.00
2023-02-03T15:27:06.843Z,94810.75
2023-02-03T15:29:37.024Z,94815.28
2023-02-03T15:32:11.416Z,94807.50
2023-02-03T15:34:42.814Z,94807.50
2023-02-03T15:37:17.857Z,94836.38
2023-02-03T15:39:55.409Z,94815.94
2023-02-03T15:42:27.777Z,94796.63
2023-02-03T15:45:00.199Z,94771.31
2023-02-03T15:47:35.167Z,94761.41
2023-02-03T15:50:14.911Z,94752.00
2023-02-03T15:52:45.292Z,94699.81
2023-02-03T15:55:24.272Z,94678.06
2023-02-03T15:57:52.538Z,94643.56
2023-02-03T16:00:43.117Z,94623.47
2023-02-03T16:03:21.605Z,94600.97
2023-02-03T16:05:50.644Z,94580.56
2023-02-03T16:08:38.739Z,94567.88
2023-02-03T16:11:30.259Z,94531.94
2023-02-03T16:14:00.961Z,94545.56
2023-02-03T16:16:34.218Z,94556.22
2023-02-03T16:19:05.269Z,94568.88
2023-02-03T16:21:36.143Z,94593.03
2023-02-03T16:24:28.010Z,94614.41
2023-02-03T16:26:56.819Z,94678.88
2023-02-03T16:29:48.311Z,94769.53
2023-02-03T16:32:37.918Z,94802.31
2023-02-03T16:35:29.390Z,94848.38
2023-02-03T16:38:15.230Z,94911.69
2023-02-03T16:41:00.630Z,94959.88
2023-02-03T16:43:45.834Z,94964.59
2023-02-03T16:46:31.457Z,94990.91
2023-02-03T16:49:18.056Z,94999.34
2023-02-03T16:51:46.428Z,95026.31
2023-02-03T16:54:17.478Z,95061.56
2023-02-03T16:56:45.809Z,95062.22
2023-02-03T16:59:14.232Z,95075.06
2023-02-03T17:01:42.287Z,95097.81
2023-02-03T17:04:11.963Z,95093.56
2023-02-03T17:06:41.125Z,95103.66
2023-02-03T17:09:09.437Z,95122.22
2023-02-03T17:11:37.529Z,95124.81
2023-02-03T17:14:05.757Z,95147.56
2023-02-03T17:16:33.826Z,95132.59
2023-02-03T17:19:02.085Z,95126.44
2023-02-03T17:21:32.402Z,95156.00
2023-02-03T17:24:00.637Z,95186.56
2023-02-03T17:26:28.778Z,95206.41
2023-02-03T17:28:58.646Z,95249.03
2023-02-03T17:31:26.580Z,95267.25
2023-02-03T17:33:54.590Z,95267.25
2023-02-03T17:36:23.399Z,95275.72
2023-02-03T17:55:30.752Z,95318.00
2023-02-03T17:57:58.881Z,95322.22
2023-02-03T18:00:27.964Z,95334.78
2023-02-03T18:02:56.929Z,95336.41
2023-02-03T18:05:25.895Z,95328.78
2023-02-03T18:07:53.890Z,95356.75
2023-02-03T18:10:21.843Z,95335.59
2023-02-03T18:12:51.280Z,95335.44
2023-02-03T18:15:19.495Z,95321.25
2023-02-03T18:17:47.368Z,95301.09
2023-02-03T18:20:15.608Z,95293.44
2023-02-03T18:22:45.258Z,95304.34
2023-02-03T18:25:16.964Z,95307.59
2023-02-03T18:27:47.374Z,95295.88
2023-02-03T18:30:22.481Z,95312.16
2023-02-03T18:32:51.992Z,95270.50
2023-02-03T18:35:19.873Z,95273.09
2023-02-03T18:37:47.873Z,95265.63
2023-02-03T18:40:15.886Z,95253.75
2023-02-03T18:42:43.685Z,95238.63
2023-02-03T18:45:12.740Z,95251.97
2023-02-03T18:47:42.004Z,95297.81
2023-02-03T18:50:11.010Z,95306.78
2023-02-03T18:52:39.038Z,95328.94
2023-02-03T18:55:07.705Z,95329.06
2023-02-03T18:57:35.641Z,95343.25
2023-02-03T19:00:04.510Z,95319.63
2023-02-03T19:02:32.488Z,95335.59
2023-02-03T19:05:01.968Z,95322.88
2023-02-03T19:07:29.949Z,95320.44
2023-02-03T19:09:57.871Z,95340.81
2023-02-03T19:12:27.639Z,95308.41
2023-02-03T19:14:55.758Z,95291.66
2023-02-03T19:17:23.599Z,95286.59
2023-02-03T19:19:51.483Z,95273.09
2023-02-03T19:22:21.080Z,95294.91
2023-02-03T19:24:49.097Z,95295.88
2023-02-03T19:27:17.167Z,95276.69
2023-02-03T19:29:45.004Z,95292.63
2023-02-03T19:32:13.693Z,95308.72
2023-02-03T19:34:41.783Z,95291.50
2023-02-03T19:37:09.767Z,95298.47
2023-02-03T19:39:39.538Z,95299.47
2023-02-03T19:42:07.653Z,95272.94
2023-02-03T19:44:37.056Z,95224.31
2023-02-03T19:47:06.910Z,95178.13
2023-02-03T19:49:35.061Z,95097.00
2023-02-03T19:52:03.030Z,95034.63
2023-02-03T19:54:30.944Z,95013.50
2023-02-03T19:57:01.804Z,95021.13
2023-02-03T19:59:29.688Z,94987.50
2023-02-03T20:02:01.643Z,95019.50
2023-02-03T20:04:33.958Z,95032.00
2023-02-03T20:07:01.865Z,95032.81
2023-02-03T20:09:29.737Z,95070.66
2023-02-03T20:11:57.514Z,95069.88
2023-02-03T20:14:26.815Z,95063.19
2023-02-03T20:16:54.582Z,95054.59
2023-02-03T20:19:22.417Z,95027.78
2023-02-03T20:21:50.384Z,94992.19
2023-02-03T20:24:18.509Z,94973.84
2023-02-03T20:26:46.396Z,94984.88
2023-02-03T20:29:14.532Z,94956.31
2023-02-03T20:31:43.878Z,94933.44
2023-02-03T20:34:12.276Z,94921.75
2023-02-03T20:36:40.243Z,94853.72
2023-02-03T20:39:15.636Z,94817.56
2023-02-03T20:41:43.594Z,94792.25
2023-02-03T20:44:14.027Z,94741.63
2023-02-03T20:46:43.326Z,94697.38
2023-02-03T20:49:12.442Z,94693.81
2023-02-03T20:51:40.692Z,94682.63
2023-02-03T20:54:15.982Z,94633.34
2023-02-03T20:56:44.056Z,94663.50
2023-02-03T20:59:13.360Z,94662.50
2023-02-03T21:01:41.471Z,94664.47
2023-02-03T21:04:32.255Z,94672.25
2023-02-03T21:07:00.685Z,94669.47
2023-02-03T21:09:28.770Z,94661.06
2023-02-03T21:11:56.723Z,94647.63
2023-02-03T21:14:27.056Z,94602.91
2023-02-03T21:16:54.966Z,94610.50
2023-02-03T21:19:30.296Z,94574.41
2023-02-03T21:21:58.815Z,94567.88
2023-02-03T21:24:29.524Z,94558.34
2023-02-03T21:26:58.757Z,94542.78
2023-02-03T21:29:30.638Z,94491.16
2023-02-03T21:31:59.440Z,94535.81
2023-02-03T21:34:31.199Z,94579.56
2023-02-03T21:37:03.247Z,94598.03
2023-02-03T21:39:33.934Z,94620.56
2023-02-03T21:42:39.492Z,94646.81
2023-02-03T21:45:25.324Z,94669.31
2023-02-03T21:47:54.451Z,94648.25
2023-02-03T21:50:31.668Z,94673.53
2023-02-03T21:53:18.930Z,94696.25
2023-02-03T21:55:46.873Z,94703.72
2023-02-03T21:58:23.517Z,94702.91
2023-02-03T22:00:52.486Z,94696.09
2023-02-03T22:03:26.478Z,94724.78
2023-02-03T22:06:13.942Z,94738.88
2023-02-03T22:08:43.478Z,94745.03
2023-02-03T22:11:11.972Z,94766.59
2023-02-03T22:13:40.254Z,94829.88
2023-02-03T22:16:08.771Z,94857.47
2023-02-03T22:18:37.013Z,94886.84
2023-02-03T22:21:06.647Z,94917.19
2023-02-03T22:23:34.994Z,94919.16
2023-02-03T22:26:02.963Z,94953.56
2023-02-03T22:28:30.796Z,94951.63
2023-02-03T22:30:59.079Z,94969.47
2023-02-03T22:33:27.072Z,94977.91
2023-02-03T22:35:55.019Z,94975.47
2023-02-03T22:38:24.752Z,94929.22
2023-02-03T22:40:53.096Z,94940.91
2023-02-03T22:43:21.126Z,94923.22
2023-02-03T22:45:49.138Z,94886.03
2023-02-03T22:48:17.018Z,94886.34
2023-02-03T22:50:44.965Z,94844.16
2023-02-03T22:53:13.094Z,94820.47
2023-02-03T22:55:43.035Z,94766.59
2023-02-03T22:58:11.152Z,94735.63
2023-02-03T23:00:39.208Z,94730.63
2023-02-03T23:03:07.173Z,94722.19
2023-02-03T23:05:35.323Z,94682.63
2023-02-03T23:08:03.577Z,94671.75
2023-02-03T23:10:32.113Z,94711.50
2023-02-03T23:13:01.826Z,94733.03
2023-02-03T23:15:30.331Z,94762.56
2023-02-03T23:17:58.434Z,94786.09
2023-02-03T23:20:26.613Z,94802.00
2023-02-03T23:22:54.596Z,94785.13
2023-02-03T23:25:22.539Z,94836.53
2023-02-03T23:27:50.627Z,94825.00
2023-02-03T23:30:20.155Z,94849.84
2023-02-03T23:32:48.321Z,94857.47
2023-02-03T23:35:33.852Z,94842.38
2023-02-03T23:38:01.767Z,94856.00
2023-02-03T23:40:29.935Z,94818.03
2023-02-03T23:42:58.120Z,94798.75
2023-02-03T23:45:29.860Z,94800.38
2023-02-03T23:47:58.059Z,94818.84
2023-02-03T23:50:25.984Z,94837.34
2023-02-03T23:52:54.098Z,94855.03
2023-02-03T23:55:23.507Z,94855.84
2023-02-03T23:57:52.603Z,94860.22
